sensor_id;sensor_type;location;lat;lon;timestamp;P1;durP1;ratioP1;P2;durP2;ratioP2
17993;SDS011;9122;48.406;9.984;2023-11-18T00:00:29;6.70;;;5.00;;
17993;SDS011;9122;48.406;9.984;2023-11-18T00:03:13;5.47;;;4.93;;
17993;SDS011;9122;48.406;9.984;2023-11-18T00:05:58;4.80;;;4.40;;
17993;SDS011;9122;48.406;9.984;2023-11-18T00:08:43;5.40;;;4.80;;
17993;SDS011;9122;48.406;9.984;2023-11-18T00:11:28;4.93;;;4.53;;
17993;SDS011;9122;48.406;9.984;2023-11-18T00:14:12;4.67;;;4.27;;
17993;SDS011;9122;48.406;9.984;2023-11-18T00:16:57;4.93;;;4.43;;
17993;SDS011;9122;48.406;9.984;2023-11-18T00:19:42;4.67;;;4.37;;
17993;SDS011;9122;48.406;9.984;2023-11-18T00:22:28;5.83;;;5.33;;
17993;SDS011;9122;48.406;9.984;2023-11-18T00:25:12;5.17;;;4.80;;
17993;SDS011;9122;48.406;9.984;2023-11-18T00:27:58;6.83;;;4.90;;
17993;SDS011;9122;48.406;9.984;2023-11-18T00:30:42;4.40;;;4.10;;
17993;SDS011;9122;48.406;9.984;2023-11-18T00:33:26;4.33;;;3.93;;
17993;SDS011;9122;48.406;9.984;2023-11-18T00:36:11;3.70;;;3.40;;
17993;SDS011;9122;48.406;9.984;2023-11-18T00:38:55;4.70;;;4.30;;
17993;SDS011;9122;48.406;9.984;2023-11-18T00:41:39;5.40;;;4.90;;
17993;SDS011;9122;48.406;9.984;2023-11-18T00:44:24;5.37;;;4.97;;
17993;SDS011;9122;48.406;9.984;2023-11-18T00:47:08;6.03;;;5.53;;
17993;SDS011;9122;48.406;9.984;2023-11-18T00:49:53;4.37;;;4.07;;
17993;SDS011;9122;48.406;9.984;2023-11-18T00:52:37;4.63;;;4.23;;
17993;SDS011;9122;48.406;9.984;2023-11-18T00:55:24;3.93;;;3.53;;
17993;SDS011;9122;48.406;9.984;2023-11-18T00:58:09;3.97;;;3.67;;
17993;SDS011;9122;48.406;9.984;2023-11-18T01:00:53;4.60;;;4.00;;
17993;SDS011;9122;48.406;9.984;2023-11-18T01:03:38;4.40;;;4.00;;
17993;SDS011;9122;48.406;9.984;2023-11-18T01:06:22;5.80;;;4.40;;
17993;SDS011;9122;48.406;9.984;2023-11-18T01:09:07;3.90;;;3.60;;
17993;SDS011;9122;48.406;9.984;2023-11-18T01:11:53;3.90;;;3.60;;
17993;SDS011;9122;48.406;9.984;2023-11-18T01:14:38;4.17;;;3.87;;
17993;SDS011;9122;48.406;9.984;2023-11-18T01:17:23;4.70;;;4.30;;
17993;SDS011;9122;48.406;9.984;2023-11-18T01:20:07;5.10;;;4.60;;
17993;SDS011;9122;48.406;9.984;2023-11-18T01:22:54;5.33;;;4.93;;
17993;SDS011;9122;48.406;9.984;2023-11-18T01:25:39;5.10;;;4.70;;
17993;SDS011;9122;48.406;9.984;2023-11-18T01:28:24;4.70;;;4.30;;
17993;SDS011;9122;48.406;9.984;2023-11-18T01:31:10;4.37;;;3.97;;
17993;SDS011;9122;48.406;9.984;2023-11-18T01:33:55;4.77;;;4.47;;
17993;SDS011;9122;48.406;9.984;2023-11-18T01:36:39;4.77;;;4.27;;
17993;SDS011;9122;48.406;9.984;2023-11-18T01:39:24;4.40;;;4.00;;
17993;SDS011;9122;48.406;9.984;2023-11-18T01:42:10;5.07;;;4.67;;
17993;SDS011;9122;48.406;9.984;2023-11-18T01:44:55;4.40;;;4.10;;
17993;SDS011;9122;48.406;9.984;2023-11-18T01:47:40;4.67;;;4.37;;
17993;SDS011;9122;48.406;9.984;2023-11-18T01:50:25;4.33;;;4.03;;
17993;SDS011;9122;48.406;9.984;2023-11-18T01:53:10;4.97;;;4.47;;
17993;SDS011;9122;48.406;9.984;2023-11-18T01:55:57;4.93;;;4.53;;
17993;SDS011;9122;48.406;9.984;2023-11-18T01:58:42;3.90;;;3.60;;
17993;SDS011;9122;48.406;9.984;2023-11-18T02:01:27;5.20;;;4.33;;
17993;SDS011;9122;48.406;9.984;2023-11-18T02:04:12;4.50;;;4.20;;
17993;SDS011;9122;48.406;9.984;2023-11-18T02:06:57;5.73;;;4.47;;
17993;SDS011;9122;48.406;9.984;2023-11-18T02:09:45;4.73;;;4.33;;
17993;SDS011;9122;48.406;9.984;2023-11-18T02:12:31;4.57;;;4.17;;
17993;SDS011;9122;48.406;9.984;2023-11-18T02:15:23;4.57;;;4.27;;
17993;SDS011;9122;48.406;9.984;2023-11-18T02:18:10;4.80;;;4.40;;
17993;SDS011;9122;48.406;9.984;2023-11-18T02:20:55;5.37;;;4.87;;
17993;SDS011;9122;48.406;9.984;2023-11-18T02:23:43;5.30;;;4.90;;
17993;SDS011;9122;48.406;9.984;2023-11-18T02:26:27;4.40;;;4.10;;
17993;SDS011;9122;48.406;9.984;2023-11-18T02:29:12;5.10;;;4.20;;
17993;SDS011;9122;48.406;9.984;2023-11-18T02:31:59;4.60;;;4.20;;
17993;SDS011;9122;48.406;9.984;2023-11-18T02:35:23;4.87;;;4.47;;
17993;SDS011;9122;48.406;9.984;2023-11-18T02:38:10;5.13;;;4.73;;
17993;SDS011;9122;48.406;9.984;2023-11-18T02:40:55;4.93;;;4.53;;
17993;SDS011;9122;48.406;9.984;2023-11-18T02:43:43;4.20;;;3.90;;
17993;SDS011;9122;48.406;9.984;2023-11-18T02:46:28;4.60;;;4.30;;
17993;SDS011;9122;48.406;9.984;2023-11-18T02:49:16;5.53;;;4.77;;
17993;SDS011;9122;48.406;9.984;2023-11-18T02:52:01;5.07;;;4.67;;
17993;SDS011;9122;48.406;9.984;2023-11-18T02:54:46;5.20;;;4.80;;
17993;SDS011;9122;48.406;9.984;2023-11-18T02:57:30;4.60;;;4.30;;
17993;SDS011;9122;48.406;9.984;2023-11-18T03:00:15;4.57;;;4.17;;
17993;SDS011;9122;48.406;9.984;2023-11-18T03:03:02;4.80;;;4.50;;
17993;SDS011;9122;48.406;9.984;2023-11-18T03:05:47;4.27;;;4.00;;
17993;SDS011;9122;48.406;9.984;2023-11-18T03:08:33;4.70;;;4.30;;
17993;SDS011;9122;48.406;9.984;2023-11-18T03:11:18;4.93;;;4.53;;
17993;SDS011;9122;48.406;9.984;2023-11-18T03:14:04;5.17;;;4.77;;
17993;SDS011;9122;48.406;9.984;2023-11-18T03:16:53;5.23;;;4.83;;
17993;SDS011;9122;48.406;9.984;2023-11-18T03:19:39;5.30;;;4.80;;
17993;SDS011;9122;48.406;9.984;2023-11-18T03:22:23;5.03;;;4.53;;
17993;SDS011;9122;48.406;9.984;2023-11-18T03:25:08;5.60;;;5.20;;
17993;SDS011;9122;48.406;9.984;2023-11-18T03:27:53;4.70;;;4.33;;
17993;SDS011;9122;48.406;9.984;2023-11-18T03:30:38;5.07;;;4.77;;
17993;SDS011;9122;48.406;9.984;2023-11-18T03:33:22;5.50;;;5.10;;
17993;SDS011;9122;48.406;9.984;2023-11-18T03:36:07;6.10;;;5.60;;
17993;SDS011;9122;48.406;9.984;2023-11-18T03:38:52;5.30;;;4.90;;
17993;SDS011;9122;48.406;9.984;2023-11-18T03:41:36;4.70;;;4.40;;
17993;SDS011;9122;48.406;9.984;2023-11-18T03:44:21;4.67;;;4.33;;
17993;SDS011;9122;48.406;9.984;2023-11-18T03:47:07;5.73;;;4.77;;
17993;SDS011;9122;48.406;9.984;2023-11-18T03:49:52;4.47;;;4.17;;
17993;SDS011;9122;48.406;9.984;2023-11-18T03:52:37;4.27;;;3.97;;
17993;SDS011;9122;48.406;9.984;2023-11-18T03:55:22;5.00;;;4.53;;
17993;SDS011;9122;48.406;9.984;2023-11-18T03:58:06;4.83;;;4.53;;
17993;SDS011;9122;48.406;9.984;2023-11-18T04:00:52;4.40;;;4.10;;
17993;SDS011;9122;48.406;9.984;2023-11-18T04:03:37;4.10;;;3.87;;
17993;SDS011;9122;48.406;9.984;2023-11-18T04:06:22;3.53;;;3.33;;
17993;SDS011;9122;48.406;9.984;2023-11-18T04:09:08;4.33;;;4.03;;
17993;SDS011;9122;48.406;9.984;2023-11-18T04:11:56;4.10;;;3.80;;
17993;SDS011;9122;48.406;9.984;2023-11-18T04:14:42;3.63;;;3.43;;
17993;SDS011;9122;48.406;9.984;2023-11-18T04:17:26;4.20;;;3.90;;
17993;SDS011;9122;48.406;9.984;2023-11-18T04:20:11;4.40;;;4.00;;
17993;SDS011;9122;48.406;9.984;2023-11-18T04:22:56;4.37;;;4.07;;
17993;SDS011;9122;48.406;9.984;2023-11-18T04:25:41;4.13;;;3.77;;
17993;SDS011;9122;48.406;9.984;2023-11-18T04:28:25;3.93;;;3.67;;
17993;SDS011;9122;48.406;9.984;2023-11-18T04:31:10;4.37;;;4.07;;
17993;SDS011;9122;48.406;9.984;2023-11-18T04:33:54;4.27;;;3.97;;
17993;SDS011;9122;48.406;9.984;2023-11-18T04:36:41;4.47;;;4.17;;
17993;SDS011;9122;48.406;9.984;2023-11-18T04:39:25;5.00;;;3.77;;
17993;SDS011;9122;48.406;9.984;2023-11-18T04:42:10;4.53;;;4.13;;
17993;SDS011;9122;48.406;9.984;2023-11-18T04:44:55;3.70;;;3.40;;
17993;SDS011;9122;48.406;9.984;2023-11-18T04:47:40;4.77;;;4.30;;
17993;SDS011;9122;48.406;9.984;2023-11-18T04:50:26;4.27;;;3.97;;
17993;SDS011;9122;48.406;9.984;2023-11-18T04:53:12;4.47;;;4.17;;
17993;SDS011;9122;48.406;9.984;2023-11-18T04:55:56;4.43;;;4.10;;
17993;SDS011;9122;48.406;9.984;2023-11-18T04:58:42;4.60;;;4.20;;
17993;SDS011;9122;48.406;9.984;2023-11-18T05:01:26;4.50;;;4.10;;
17993;SDS011;9122;48.406;9.984;2023-11-18T05:04:10;4.23;;;3.93;;
17993;SDS011;9122;48.406;9.984;2023-11-18T05:06:54;4.53;;;4.13;;
17993;SDS011;9122;48.406;9.984;2023-11-18T05:09:39;4.50;;;4.10;;
17993;SDS011;9122;48.406;9.984;2023-11-18T05:12:23;4.50;;;4.20;;
17993;SDS011;9122;48.406;9.984;2023-11-18T05:15:07;5.27;;;4.87;;
17993;SDS011;9122;48.406;9.984;2023-11-18T05:17:52;4.67;;;4.27;;
17993;SDS011;9122;48.406;9.984;2023-11-18T05:20:37;4.87;;;4.47;;
17993;SDS011;9122;48.406;9.984;2023-11-18T05:23:21;4.13;;;3.83;;
17993;SDS011;9122;48.406;9.984;2023-11-18T05:26:05;4.20;;;3.90;;
17993;SDS011;9122;48.406;9.984;2023-11-18T05:28:50;3.93;;;3.63;;
17993;SDS011;9122;48.406;9.984;2023-11-18T05:31:35;4.17;;;3.87;;
17993;SDS011;9122;48.406;9.984;2023-11-18T05:34:20;3.60;;;3.40;;
17993;SDS011;9122;48.406;9.984;2023-11-18T05:37:05;4.03;;;3.73;;
17993;SDS011;9122;48.406;9.984;2023-11-18T05:39:49;4.07;;;3.73;;
17993;SDS011;9122;48.406;9.984;2023-11-18T05:42:42;4.10;;;3.80;;
17993;SDS011;9122;48.406;9.984;2023-11-18T05:45:29;3.93;;;3.63;;
17993;SDS011;9122;48.406;9.984;2023-11-18T05:48:20;4.10;;;3.80;;
17993;SDS011;9122;48.406;9.984;2023-11-18T05:51:05;3.93;;;3.63;;
17993;SDS011;9122;48.406;9.984;2023-11-18T05:53:50;4.20;;;3.90;;
17993;SDS011;9122;48.406;9.984;2023-11-18T05:56:35;7.00;;;4.10;;
17993;SDS011;9122;48.406;9.984;2023-11-18T05:59:20;4.07;;;3.77;;
17993;SDS011;9122;48.406;9.984;2023-11-18T06:02:05;4.10;;;3.80;;
17993;SDS011;9122;48.406;9.984;2023-11-18T06:04:51;4.43;;;4.13;;
17993;SDS011;9122;48.406;9.984;2023-11-18T06:07:38;4.73;;;4.40;;
17993;SDS011;9122;48.406;9.984;2023-11-18T06:10:27;4.83;;;4.43;;
17993;SDS011;9122;48.406;9.984;2023-11-18T06:13:12;4.40;;;4.10;;
17993;SDS011;9122;48.406;9.984;2023-11-18T06:15:56;4.60;;;4.23;;
17993;SDS011;9122;48.406;9.984;2023-11-18T06:18:43;5.43;;;4.97;;
17993;SDS011;9122;48.406;9.984;2023-11-18T06:21:28;5.33;;;4.93;;
17993;SDS011;9122;48.406;9.984;2023-11-18T06:24:13;5.20;;;4.80;;
17993;SDS011;9122;48.406;9.984;2023-11-18T06:26:58;5.53;;;4.90;;
17993;SDS011;9122;48.406;9.984;2023-11-18T06:29:43;4.70;;;4.30;;
17993;SDS011;9122;48.406;9.984;2023-11-18T06:32:34;5.10;;;4.70;;
17993;SDS011;9122;48.406;9.984;2023-11-18T06:35:19;4.83;;;4.43;;
17993;SDS011;9122;48.406;9.984;2023-11-18T06:38:05;4.73;;;4.27;;
17993;SDS011;9122;48.406;9.984;2023-11-18T06:40:53;5.00;;;4.23;;
17993;SDS011;9122;48.406;9.984;2023-11-18T06:43:41;4.83;;;4.43;;
17993;SDS011;9122;48.406;9.984;2023-11-18T06:46:36;5.10;;;4.60;;
17993;SDS011;9122;48.406;9.984;2023-11-18T06:49:23;5.13;;;4.73;;
17993;SDS011;9122;48.406;9.984;2023-11-18T06:52:09;5.37;;;4.87;;
17993;SDS011;9122;48.406;9.984;2023-11-18T06:54:55;5.10;;;4.70;;
17993;SDS011;9122;48.406;9.984;2023-11-18T06:57:40;4.93;;;4.53;;
17993;SDS011;9122;48.406;9.984;2023-11-18T07:00:27;5.80;;;5.30;;
17993;SDS011;9122;48.406;9.984;2023-11-18T07:03:13;5.57;;;5.10;;
17993;SDS011;9122;48.406;9.984;2023-11-18T07:05:58;6.73;;;5.73;;
17993;SDS011;9122;48.406;9.984;2023-11-18T07:08:43;6.27;;;5.77;;
17993;SDS011;9122;48.406;9.984;2023-11-18T07:11:29;6.70;;;5.87;;
17993;SDS011;9122;48.406;9.984;2023-11-18T07:14:16;7.40;;;6.63;;
17993;SDS011;9122;48.406;9.984;2023-11-18T07:17:01;7.30;;;6.30;;
17993;SDS011;9122;48.406;9.984;2023-11-18T07:19:45;11.53;;;7.67;;
17993;SDS011;9122;48.406;9.984;2023-11-18T07:22:30;7.93;;;6.80;;
17993;SDS011;9122;48.406;9.984;2023-11-18T07:25:14;9.07;;;6.90;;
17993;SDS011;9122;48.406;9.984;2023-11-18T07:27:59;8.67;;;7.83;;
17993;SDS011;9122;48.406;9.984;2023-11-18T07:30:44;9.33;;;7.33;;
17993;SDS011;9122;48.406;9.984;2023-11-18T07:33:32;9.90;;;8.90;;
17993;SDS011;9122;48.406;9.984;2023-11-18T07:36:16;10.17;;;9.27;;
17993;SDS011;9122;48.406;9.984;2023-11-18T07:39:03;10.50;;;9.50;;
17993;SDS011;9122;48.406;9.984;2023-11-18T07:41:48;10.40;;;9.40;;
17993;SDS011;9122;48.406;9.984;2023-11-18T07:44:32;11.57;;;10.37;;
17993;SDS011;9122;48.406;9.984;2023-11-18T07:47:17;13.50;;;9.87;;
17993;SDS011;9122;48.406;9.984;2023-11-18T07:50:03;11.47;;;10.27;;
17993;SDS011;9122;48.406;9.984;2023-11-18T07:52:48;13.70;;;10.97;;
17993;SDS011;9122;48.406;9.984;2023-11-18T07:55:33;15.00;;;11.17;;
17993;SDS011;9122;48.406;9.984;2023-11-18T07:58:23;12.40;;;10.70;;
17993;SDS011;9122;48.406;9.984;2023-11-18T08:01:08;14.20;;;10.97;;
17993;SDS011;9122;48.406;9.984;2023-11-18T08:03:52;12.83;;;11.53;;
17993;SDS011;9122;48.406;9.984;2023-11-18T08:06:38;11.67;;;10.50;;
17993;SDS011;9122;48.406;9.984;2023-11-18T08:09:22;12.10;;;10.50;;
17993;SDS011;9122;48.406;9.984;2023-11-18T08:12:09;11.27;;;10.17;;
17993;SDS011;9122;48.406;9.984;2023-11-18T08:14:54;11.17;;;10.07;;
17993;SDS011;9122;48.406;9.984;2023-11-18T08:17:38;11.17;;;10.03;;
17993;SDS011;9122;48.406;9.984;2023-11-18T08:20:23;11.27;;;10.13;;
17993;SDS011;9122;48.406;9.984;2023-11-18T08:23:09;12.87;;;11.10;;
17993;SDS011;9122;48.406;9.984;2023-11-18T08:25:54;12.23;;;10.23;;
17993;SDS011;9122;48.406;9.984;2023-11-18T08:28:38;12.73;;;11.17;;
17993;SDS011;9122;48.406;9.984;2023-11-18T08:31:24;11.13;;;9.77;;
17993;SDS011;9122;48.406;9.984;2023-11-18T08:34:09;12.60;;;10.30;;
17993;SDS011;9122;48.406;9.984;2023-11-18T08:36:53;12.07;;;10.23;;
17993;SDS011;9122;48.406;9.984;2023-11-18T08:39:39;13.13;;;11.30;;
17993;SDS011;9122;48.406;9.984;2023-11-18T08:42:23;12.67;;;10.90;;
17993;SDS011;9122;48.406;9.984;2023-11-18T08:45:08;11.30;;;9.90;;
17993;SDS011;9122;48.406;9.984;2023-11-18T08:47:53;11.80;;;10.57;;
17993;SDS011;9122;48.406;9.984;2023-11-18T08:50:39;11.23;;;9.93;;
17993;SDS011;9122;48.406;9.984;2023-11-18T08:53:24;11.07;;;9.23;;
17993;SDS011;9122;48.406;9.984;2023-11-18T08:56:09;10.17;;;9.07;;
17993;SDS011;9122;48.406;9.984;2023-11-18T08:59:00;10.37;;;9.20;;
17993;SDS011;9122;48.406;9.984;2023-11-18T09:01:44;9.87;;;8.77;;
17993;SDS011;9122;48.406;9.984;2023-11-18T09:04:33;13.13;;;9.67;;
17993;SDS011;9122;48.406;9.984;2023-11-18T09:07:18;11.93;;;9.57;;
17993;SDS011;9122;48.406;9.984;2023-11-18T09:10:03;11.67;;;9.30;;
17993;SDS011;9122;48.406;9.984;2023-11-18T09:12:47;9.70;;;8.70;;
17993;SDS011;9122;48.406;9.984;2023-11-18T09:15:32;11.30;;;9.07;;
17993;SDS011;9122;48.406;9.984;2023-11-18T09:18:20;11.53;;;8.80;;
17993;SDS011;9122;48.406;9.984;2023-11-18T09:21:05;9.40;;;8.50;;
17993;SDS011;9122;48.406;9.984;2023-11-18T09:23:50;9.23;;;8.27;;
17993;SDS011;9122;48.406;9.984;2023-11-18T09:26:35;11.57;;;8.70;;
17993;SDS011;9122;48.406;9.984;2023-11-18T09:29:19;9.87;;;8.40;;
17993;SDS011;9122;48.406;9.984;2023-11-18T09:32:07;10.37;;;8.83;;
17993;SDS011;9122;48.406;9.984;2023-11-18T09:34:52;8.83;;;7.93;;
17993;SDS011;9122;48.406;9.984;2023-11-18T09:37:37;8.83;;;7.97;;
17993;SDS011;9122;48.406;9.984;2023-11-18T09:40:22;10.70;;;8.83;;
17993;SDS011;9122;48.406;9.984;2023-11-18T09:43:13;12.60;;;10.57;;
17993;SDS011;9122;48.406;9.984;2023-11-18T09:46:03;11.63;;;9.63;;
17993;SDS011;9122;48.406;9.984;2023-11-18T09:49:03;10.13;;;9.03;;
17993;SDS011;9122;48.406;9.984;2023-11-18T09:52:03;9.70;;;8.80;;
17993;SDS011;9122;48.406;9.984;2023-11-18T09:57:49;9.00;;;8.10;;
17993;SDS011;9122;48.406;9.984;2023-11-18T10:00:41;10.97;;;9.00;;
17993;SDS011;9122;48.406;9.984;2023-11-18T10:03:26;9.33;;;8.43;;
17993;SDS011;9122;48.406;9.984;2023-11-18T10:06:11;11.33;;;8.63;;
17993;SDS011;9122;48.406;9.984;2023-11-18T10:08:58;10.50;;;9.33;;
17993;SDS011;9122;48.406;9.984;2023-11-18T10:11:58;10.13;;;9.03;;
17993;SDS011;9122;48.406;9.984;2023-11-18T10:14:49;11.10;;;9.07;;
17993;SDS011;9122;48.406;9.984;2023-11-18T10:17:46;11.00;;;9.00;;
17993;SDS011;9122;48.406;9.984;2023-11-18T10:23:25;9.80;;;8.80;;
17993;SDS011;9122;48.406;9.984;2023-11-18T10:26:11;9.17;;;8.27;;
17993;SDS011;9122;48.406;9.984;2023-11-18T10:28:57;9.40;;;8.30;;
17993;SDS011;9122;48.406;9.984;2023-11-18T10:31:48;9.57;;;8.63;;
17993;SDS011;9122;48.406;9.984;2023-11-18T10:34:37;10.47;;;8.97;;
17993;SDS011;9122;48.406;9.984;2023-11-18T10:37:23;9.97;;;8.83;;
17993;SDS011;9122;48.406;9.984;2023-11-18T10:40:14;10.70;;;9.10;;
17993;SDS011;9122;48.406;9.984;2023-11-18T10:42:59;11.20;;;9.07;;
17993;SDS011;9122;48.406;9.984;2023-11-18T10:45:43;13.20;;;9.90;;
17993;SDS011;9122;48.406;9.984;2023-11-18T10:48:30;12.67;;;9.13;;
17993;SDS011;9122;48.406;9.984;2023-11-18T10:51:18;13.57;;;9.63;;
17993;SDS011;9122;48.406;9.984;2023-11-18T10:54:04;9.47;;;8.57;;
17993;SDS011;9122;48.406;9.984;2023-11-18T10:56:57;9.57;;;8.57;;
17993;SDS011;9122;48.406;9.984;2023-11-18T11:00:01;8.63;;;7.80;;
17993;SDS011;9122;48.406;9.984;2023-11-18T11:02:59;8.40;;;7.67;;
17993;SDS011;9122;48.406;9.984;2023-11-18T11:05:44;10.80;;;8.50;;
17993;SDS011;9122;48.406;9.984;2023-11-18T11:08:29;9.50;;;8.53;;
17993;SDS011;9122;48.406;9.984;2023-11-18T11:11:17;9.83;;;8.87;;
17993;SDS011;9122;48.406;9.984;2023-11-18T11:14:05;10.07;;;8.53;;
17993;SDS011;9122;48.406;9.984;2023-11-18T11:16:54;12.43;;;9.30;;
17993;SDS011;9122;48.406;9.984;2023-11-18T11:19:42;10.40;;;9.00;;
17993;SDS011;9122;48.406;9.984;2023-11-18T11:22:35;11.47;;;9.43;;
17993;SDS011;9122;48.406;9.984;2023-11-18T11:25:31;9.77;;;8.77;;
17993;SDS011;9122;48.406;9.984;2023-11-18T11:28:23;10.67;;;8.47;;
17993;SDS011;9122;48.406;9.984;2023-11-18T11:31:48;10.90;;;9.53;;
17993;SDS011;9122;48.406;9.984;2023-11-18T11:34:25;11.67;;;10.13;;
17993;SDS011;9122;48.406;9.984;2023-11-18T11:37:13;13.87;;;10.20;;
17993;SDS011;9122;48.406;9.984;2023-11-18T11:39:59;12.27;;;11.07;;
17993;SDS011;9122;48.406;9.984;2023-11-18T11:42:43;10.83;;;9.83;;
17993;SDS011;9122;48.406;9.984;2023-11-18T11:45:28;12.63;;;10.57;;
17993;SDS011;9122;48.406;9.984;2023-11-18T11:48:12;11.87;;;10.67;;
17993;SDS011;9122;48.406;9.984;2023-11-18T11:53:49;12.67;;;11.30;;
17993;SDS011;9122;48.406;9.984;2023-11-18T11:56:45;13.50;;;12.10;;
17993;SDS011;9122;48.406;9.984;2023-11-18T12:02:26;12.17;;;10.93;;
17993;SDS011;9122;48.406;9.984;2023-11-18T12:05:15;11.27;;;10.17;;
17993;SDS011;9122;48.406;9.984;2023-11-18T12:08:03;11.23;;;10.13;;
17993;SDS011;9122;48.406;9.984;2023-11-18T12:10:56;11.63;;;10.23;;
17993;SDS011;9122;48.406;9.984;2023-11-18T12:13:54;10.67;;;9.57;;
17993;SDS011;9122;48.406;9.984;2023-11-18T12:19:51;9.43;;;8.40;;
17993;SDS011;9122;48.406;9.984;2023-11-18T12:25:57;8.73;;;7.63;;
17993;SDS011;9122;48.406;9.984;2023-11-18T12:28:42;9.37;;;8.47;;
17993;SDS011;9122;48.406;9.984;2023-11-18T12:31:39;9.43;;;7.73;;
17993;SDS011;9122;48.406;9.984;2023-11-18T12:34:24;9.03;;;7.97;;
17993;SDS011;9122;48.406;9.984;2023-11-18T12:37:28;8.63;;;7.53;;
17993;SDS011;9122;48.406;9.984;2023-11-18T12:43:47;8.87;;;8.07;;
17993;SDS011;9122;48.406;9.984;2023-11-18T12:49:43;8.63;;;7.77;;
17993;SDS011;9122;48.406;9.984;2023-11-18T12:52:33;8.83;;;7.63;;
17993;SDS011;9122;48.406;9.984;2023-11-18T12:55:19;7.90;;;7.23;;
17993;SDS011;9122;48.406;9.984;2023-11-18T12:58:04;8.50;;;7.70;;
17993;SDS011;9122;48.406;9.984;2023-11-18T13:00:54;8.40;;;7.60;;
17993;SDS011;9122;48.406;9.984;2023-11-18T13:03:39;9.00;;;8.13;;
17993;SDS011;9122;48.406;9.984;2023-11-18T13:06:25;8.40;;;7.67;;
17993;SDS011;9122;48.406;9.984;2023-11-18T13:09:12;7.13;;;6.43;;
17993;SDS011;9122;48.406;9.984;2023-11-18T13:12:08;8.00;;;7.20;;
17993;SDS011;9122;48.406;9.984;2023-11-18T13:14:53;8.40;;;7.23;;
17993;SDS011;9122;48.406;9.984;2023-11-18T13:17:37;8.27;;;7.43;;
17993;SDS011;9122;48.406;9.984;2023-11-18T13:20:24;7.20;;;6.50;;
17993;SDS011;9122;48.406;9.984;2023-11-18T13:23:10;7.30;;;6.60;;
17993;SDS011;9122;48.406;9.984;2023-11-18T13:25:55;8.40;;;7.60;;
17993;SDS011;9122;48.406;9.984;2023-11-18T13:28:49;7.30;;;6.60;;
17993;SDS011;9122;48.406;9.984;2023-11-18T13:31:33;8.33;;;7.60;;
17993;SDS011;9122;48.406;9.984;2023-11-18T13:34:18;9.10;;;8.10;;
17993;SDS011;9122;48.406;9.984;2023-11-18T13:37:05;8.03;;;7.33;;
17993;SDS011;9122;48.406;9.984;2023-11-18T13:39:54;8.97;;;7.20;;
17993;SDS011;9122;48.406;9.984;2023-11-18T13:42:39;7.97;;;7.17;;
17993;SDS011;9122;48.406;9.984;2023-11-18T13:45:25;8.50;;;7.63;;
17993;SDS011;9122;48.406;9.984;2023-11-18T13:48:14;6.97;;;6.27;;
17993;SDS011;9122;48.406;9.984;2023-11-18T13:51:00;8.47;;;7.10;;
17993;SDS011;9122;48.406;9.984;2023-11-18T13:53:45;8.77;;;7.97;;
17993;SDS011;9122;48.406;9.984;2023-11-18T13:56:30;9.37;;;8.10;;
17993;SDS011;9122;48.406;9.984;2023-11-18T13:59:15;8.50;;;7.33;;
17993;SDS011;9122;48.406;9.984;2023-11-18T14:02:00;8.73;;;7.70;;
17993;SDS011;9122;48.406;9.984;2023-11-18T14:04:48;11.00;;;8.83;;
17993;SDS011;9122;48.406;9.984;2023-11-18T14:07:37;9.63;;;8.33;;
17993;SDS011;9122;48.406;9.984;2023-11-18T14:10:22;9.13;;;8.33;;
17993;SDS011;9122;48.406;9.984;2023-11-18T14:13:08;10.07;;;8.77;;
17993;SDS011;9122;48.406;9.984;2023-11-18T14:15:57;9.40;;;8.57;;
17993;SDS011;9122;48.406;9.984;2023-11-18T14:18:43;8.27;;;7.57;;
17993;SDS011;9122;48.406;9.984;2023-11-18T14:21:27;7.83;;;7.20;;
17993;SDS011;9122;48.406;9.984;2023-11-18T14:24:12;16.70;;;12.77;;
17993;SDS011;9122;48.406;9.984;2023-11-18T14:26:57;42.90;;;30.03;;
17993;SDS011;9122;48.406;9.984;2023-11-18T14:29:41;13.10;;;12.00;;
17993;SDS011;9122;48.406;9.984;2023-11-18T14:32:26;10.37;;;9.47;;
17993;SDS011;9122;48.406;9.984;2023-11-18T14:35:10;10.93;;;9.87;;
17993;SDS011;9122;48.406;9.984;2023-11-18T14:37:55;10.60;;;9.60;;
17993;SDS011;9122;48.406;9.984;2023-11-18T14:40:39;8.23;;;7.53;;
17993;SDS011;9122;48.406;9.984;2023-11-18T14:43:25;9.33;;;8.40;;
17993;SDS011;9122;48.406;9.984;2023-11-18T14:46:12;8.70;;;7.90;;
17993;SDS011;9122;48.406;9.984;2023-11-18T14:48:57;8.27;;;7.47;;
17993;SDS011;9122;48.406;9.984;2023-11-18T14:51:42;7.57;;;6.87;;
17993;SDS011;9122;48.406;9.984;2023-11-18T14:54:27;8.40;;;7.70;;
17993;SDS011;9122;48.406;9.984;2023-11-18T14:57:14;8.57;;;7.60;;
17993;SDS011;9122;48.406;9.984;2023-11-18T14:59:58;8.20;;;7.40;;
17993;SDS011;9122;48.406;9.984;2023-11-18T15:02:43;20.60;;;13.43;;
17993;SDS011;9122;48.406;9.984;2023-11-18T15:05:29;9.47;;;8.57;;
17993;SDS011;9122;48.406;9.984;2023-11-18T15:08:17;7.33;;;6.63;;
17993;SDS011;9122;48.406;9.984;2023-11-18T15:11:02;8.30;;;7.50;;
17993;SDS011;9122;48.406;9.984;2023-11-18T15:13:47;7.37;;;6.67;;
17993;SDS011;9122;48.406;9.984;2023-11-18T15:16:32;8.67;;;7.73;;
17993;SDS011;9122;48.406;9.984;2023-11-18T15:19:16;7.53;;;6.83;;
17993;SDS011;9122;48.406;9.984;2023-11-18T15:22:02;8.27;;;7.57;;
17993;SDS011;9122;48.406;9.984;2023-11-18T15:24:46;8.13;;;7.43;;
17993;SDS011;9122;48.406;9.984;2023-11-18T15:27:31;8.30;;;7.50;;
17993;SDS011;9122;48.406;9.984;2023-11-18T15:30:17;8.23;;;7.43;;
17993;SDS011;9122;48.406;9.984;2023-11-18T15:33:01;8.70;;;7.47;;
17993;SDS011;9122;48.406;9.984;2023-11-18T15:35:46;8.37;;;7.60;;
17993;SDS011;9122;48.406;9.984;2023-11-18T15:38:30;8.90;;;8.03;;
17993;SDS011;9122;48.406;9.984;2023-11-18T15:41:15;8.70;;;7.90;;
17993;SDS011;9122;48.406;9.984;2023-11-18T15:44:00;8.67;;;7.87;;
17993;SDS011;9122;48.406;9.984;2023-11-18T15:46:48;8.57;;;7.03;;
17993;SDS011;9122;48.406;9.984;2023-11-18T15:49:33;8.43;;;7.73;;
17993;SDS011;9122;48.406;9.984;2023-11-18T15:52:19;8.23;;;7.53;;
17993;SDS011;9122;48.406;9.984;2023-11-18T15:55:04;8.87;;;7.87;;
17993;SDS011;9122;48.406;9.984;2023-11-18T15:57:53;8.43;;;7.30;;
17993;SDS011;9122;48.406;9.984;2023-11-18T16:00:38;7.37;;;6.73;;
17993;SDS011;9122;48.406;9.984;2023-11-18T16:03:23;7.53;;;6.93;;
17993;SDS011;9122;48.406;9.984;2023-11-18T16:06:07;7.90;;;7.27;;
17993;SDS011;9122;48.406;9.984;2023-11-18T16:08:54;8.87;;;7.23;;
17993;SDS011;9122;48.406;9.984;2023-11-18T16:11:38;8.57;;;7.67;;
17993;SDS011;9122;48.406;9.984;2023-11-18T16:14:22;8.77;;;7.80;;
17993;SDS011;9122;48.406;9.984;2023-11-18T16:17:07;8.80;;;7.97;;
17993;SDS011;9122;48.406;9.984;2023-11-18T16:19:52;10.20;;;9.23;;
17993;SDS011;9122;48.406;9.984;2023-11-18T16:22:36;9.17;;;8.27;;
17993;SDS011;9122;48.406;9.984;2023-11-18T16:25:22;8.60;;;7.50;;
17993;SDS011;9122;48.406;9.984;2023-11-18T16:28:11;8.47;;;7.73;;
17993;SDS011;9122;48.406;9.984;2023-11-18T16:30:57;10.00;;;9.10;;
17993;SDS011;9122;48.406;9.984;2023-11-18T16:33:41;8.17;;;7.43;;
17993;SDS011;9122;48.406;9.984;2023-11-18T16:36:27;10.50;;;9.43;;
17993;SDS011;9122;48.406;9.984;2023-11-18T16:39:11;7.87;;;7.17;;
17993;SDS011;9122;48.406;9.984;2023-11-18T16:41:56;8.10;;;7.40;;
17993;SDS011;9122;48.406;9.984;2023-11-18T16:44:40;8.20;;;7.33;;
17993;SDS011;9122;48.406;9.984;2023-11-18T16:47:25;9.13;;;8.33;;
17993;SDS011;9122;48.406;9.984;2023-11-18T16:50:10;8.77;;;7.97;;
17993;SDS011;9122;48.406;9.984;2023-11-18T16:52:55;8.93;;;8.13;;
17993;SDS011;9122;48.406;9.984;2023-11-18T16:55:39;7.33;;;6.63;;
17993;SDS011;9122;48.406;9.984;2023-11-18T16:58:23;7.73;;;7.00;;
17993;SDS011;9122;48.406;9.984;2023-11-18T17:01:09;6.47;;;5.87;;
17993;SDS011;9122;48.406;9.984;2023-11-18T17:03:52;6.70;;;6.20;;
17993;SDS011;9122;48.406;9.984;2023-11-18T17:06:37;6.83;;;6.33;;
17993;SDS011;9122;48.406;9.984;2023-11-18T17:09:21;7.37;;;6.17;;
17993;SDS011;9122;48.406;9.984;2023-11-18T17:12:06;7.17;;;6.47;;
17993;SDS011;9122;48.406;9.984;2023-11-18T17:14:51;6.63;;;6.07;;
17993;SDS011;9122;48.406;9.984;2023-11-18T17:17:36;6.20;;;5.70;;